CheckWX is a tool to help pilots better visualize weather data.  It is not intended as a substitute for an official pre-flight weather briefing.

20:51:27 UTC

KMLU METAR
Monroe Regional Airport
Monroe, Louisiana, USA
Current

58 mins ago

KMLU 181953Z 03015G20KT 10SM CLR 08/M01 A3032 RMK AO2 SLP267 T00831011
Observed
Feb-18 @ 19:53 UTC
Wind
  • 030° at 15 KTS
  • Gusting to 20 KTS
Visibility
10 SM
Flight Rules
VFR
Cloud Levels
  • Clear skies
Temperature
C / 46°F
Dewpoint
-1°C / 30°F
Humidity
53%
Altimeter
30.32" Hg
Pressure
1026.7 hPa
Previous

2 hours ago

KMLU 181853Z 03016KT 10SM CLR 07/M01 A3033 RMK AO2 SLP270 T00721011
Observed
Feb-18 @ 18:53 UTC
Wind
  • 030° at 16 KTS
Visibility
10 SM
Flight Rules
VFR
Cloud Levels
  • Clear skies
Temperature
C / 45°F
Dewpoint
-1°C / 30°F
Humidity
57%
Altimeter
30.33" Hg
Pressure
1027 hPa
Previous

3 hours ago

KMLU 181753Z 05016KT 10SM CLR 06/M01 A3036 RMK AO2 SLP278 T00611011 10067 20044 53010
Observed
Feb-18 @ 17:53 UTC
Wind
  • 050° at 16 KTS
Visibility
10 SM
Flight Rules
VFR
Cloud Levels
  • Clear skies
Temperature
C / 43°F
Dewpoint
-1°C / 30°F
Humidity
61%
Altimeter
30.36" Hg
Pressure
1027.8 hPa